createdAt,value
2018-09-08T00:00:30.604Z,1.20
2018-09-08T00:03:02.195Z,1.10
2018-09-08T00:05:32.896Z,1.67
2018-09-08T00:08:02.332Z,1.30
2018-09-08T00:10:31.809Z,1.00
2018-09-08T00:13:01.300Z,1.47
2018-09-08T00:15:35.988Z,1.33
2018-09-08T00:18:10.945Z,1.67
2018-09-08T00:20:45.722Z,0.70
2018-09-08T00:23:20.255Z,1.30
2018-09-08T00:25:54.872Z,1.03
2018-09-08T00:28:29.502Z,0.70
2018-09-08T00:30:59.679Z,0.67
2018-09-08T00:33:29.216Z,0.70
2018-09-08T00:35:58.687Z,0.60
2018-09-08T00:38:28.220Z,0.60
2018-09-08T00:40:57.928Z,1.17
2018-09-08T00:43:27.352Z,1.37
2018-09-08T00:45:56.905Z,1.03
2018-09-08T00:48:26.371Z,0.53
2018-09-08T00:50:55.809Z,0.50
2018-09-08T00:53:26.188Z,0.60
2018-09-08T00:55:55.641Z,0.60
2018-09-08T00:58:25.176Z,0.60
2018-09-08T01:00:54.692Z,0.83
2018-09-08T01:03:24.122Z,1.37
2018-09-08T01:05:54.305Z,0.53
2018-09-08T01:08:23.846Z,0.60
2018-09-08T01:10:53.305Z,0.60
2018-09-08T01:13:22.833Z,1.20
2018-09-08T01:15:52.309Z,0.60
2018-09-08T01:18:21.802Z,0.67
2018-09-08T01:20:51.293Z,0.47
2018-09-08T01:23:20.724Z,0.60
2018-09-08T01:25:50.195Z,0.70
2018-09-08T01:28:19.724Z,1.07
2018-09-08T01:30:49.212Z,0.60
2018-09-08T01:33:18.709Z,0.50
2018-09-08T01:35:48.176Z,0.60
2018-09-08T01:38:17.641Z,0.40
2018-09-08T01:40:47.184Z,0.40
2018-09-08T01:43:16.671Z,0.50
2018-09-08T01:45:46.121Z,0.53
2018-09-08T01:48:15.601Z,0.87
2018-09-08T01:50:45.026Z,0.70
2018-09-08T01:53:14.521Z,0.70
2018-09-08T01:55:44.090Z,1.20
2018-09-08T01:58:13.537Z,0.77
2018-09-08T02:00:43.017Z,0.73
2018-09-08T02:03:12.614Z,0.73
2018-09-08T02:05:42.058Z,0.73
2018-09-08T02:08:11.558Z,0.60
2018-09-08T02:10:41.187Z,0.77
2018-09-08T02:13:11.016Z,0.40
2018-09-08T02:15:40.491Z,0.80
2018-09-08T02:18:09.968Z,0.70
2018-09-08T02:20:39.442Z,0.73
2018-09-08T02:23:08.935Z,1.00
2018-09-08T02:25:38.391Z,0.50
2018-09-08T02:28:07.899Z,0.70
2018-09-08T02:30:37.374Z,0.60
2018-09-08T02:33:06.854Z,0.80
2018-09-08T02:35:36.352Z,0.90
2018-09-08T02:38:05.873Z,0.47
2018-09-08T02:40:35.453Z,0.60
2018-09-08T02:43:05.000Z,0.53
2018-09-08T02:45:34.500Z,0.57
2018-09-08T02:48:04.001Z,1.30
2018-09-08T02:50:35.334Z,0.70
2018-09-08T02:53:03.762Z,0.70
2018-09-08T02:55:32.141Z,0.70
2018-09-08T02:58:00.257Z,1.10
2018-09-08T03:00:29.214Z,0.67
2018-09-08T03:02:57.045Z,0.93
2018-09-08T03:05:24.827Z,0.70
2018-09-08T03:07:52.634Z,0.50
2018-09-08T03:10:21.292Z,0.97
2018-09-08T03:12:49.070Z,0.80
2018-09-08T03:15:16.846Z,0.67
2018-09-08T03:17:44.711Z,1.10
2018-09-08T03:20:12.476Z,0.80
2018-09-08T03:22:40.268Z,0.63
2018-09-08T03:25:08.106Z,0.80
2018-09-08T03:27:35.882Z,0.90
2018-09-08T03:30:03.665Z,0.80
2018-09-08T03:32:31.473Z,0.80
2018-09-08T03:34:59.277Z,0.97
2018-09-08T03:37:27.060Z,0.70
2018-09-08T03:39:54.882Z,1.30
2018-09-08T03:42:22.642Z,0.73
2018-09-08T03:44:50.442Z,1.40
2018-09-08T03:47:18.244Z,0.97
2018-09-08T03:49:46.115Z,1.00
2018-09-08T03:52:13.954Z,1.40
2018-09-08T03:54:41.724Z,0.90
2018-09-08T03:57:09.513Z,1.00
2018-09-08T03:59:37.345Z,1.53
2018-09-08T04:02:05.114Z,1.00
2018-09-08T04:04:34.552Z,0.90
2018-09-08T04:07:04.025Z,1.33
2018-09-08T04:09:33.423Z,1.03
2018-09-08T04:12:02.879Z,1.03
2018-09-08T04:14:32.385Z,1.00
2018-09-08T04:17:01.887Z,1.57
2018-09-08T04:19:31.365Z,0.50
2018-09-08T04:22:00.918Z,1.27
2018-09-08T04:24:30.409Z,1.00
2018-09-08T04:26:59.875Z,1.73
2018-09-08T04:29:29.422Z,1.67
2018-09-08T04:31:58.780Z,1.10
2018-09-08T04:34:28.249Z,1.03
2018-09-08T04:36:57.690Z,1.43
2018-09-08T04:39:27.171Z,1.53
2018-09-08T04:41:56.651Z,1.77
2018-09-08T04:44:26.742Z,1.57
2018-09-08T04:46:56.273Z,1.93
2018-09-08T04:49:25.769Z,1.00
2018-09-08T04:51:55.259Z,1.30
2018-09-08T04:54:24.832Z,1.23
2018-09-08T04:56:54.410Z,1.60
2018-09-08T04:59:23.919Z,1.17
2018-09-08T05:01:53.463Z,1.10
2018-09-08T05:04:22.971Z,1.53
2018-09-08T05:06:52.492Z,1.50
2018-09-08T05:09:22.042Z,1.30
2018-09-08T05:11:51.672Z,1.50
2018-09-08T05:14:21.290Z,1.43
2018-09-08T05:16:50.780Z,1.60
2018-09-08T05:19:20.223Z,1.50
2018-09-08T05:21:49.894Z,1.10
2018-09-08T05:24:19.455Z,1.73
2018-09-08T05:26:49.020Z,2.20
2018-09-08T05:29:18.497Z,1.47
2018-09-08T05:31:48.078Z,1.40
2018-09-08T05:34:17.657Z,1.00
2018-09-08T05:36:47.105Z,1.40
2018-09-08T05:39:16.716Z,1.90
2018-09-08T05:41:46.225Z,1.87
2018-09-08T05:44:15.979Z,2.30
2018-09-08T05:46:45.755Z,2.00
2018-09-08T05:49:15.481Z,1.80
2018-09-08T05:51:44.957Z,1.90
2018-09-08T05:54:14.491Z,2.27
2018-09-08T05:56:44.033Z,1.43
2018-09-08T05:59:13.506Z,1.37
2018-09-08T06:01:42.971Z,1.70
2018-09-08T06:04:12.734Z,2.43
2018-09-08T06:06:42.416Z,2.03
2018-09-08T06:09:12.004Z,1.87
2018-09-08T06:11:41.441Z,0.90
2018-09-08T06:14:10.940Z,2.07
2018-09-08T06:16:40.457Z,2.40
2018-09-08T06:19:10.029Z,1.77
2018-09-08T06:21:39.992Z,1.27
2018-09-08T06:24:09.465Z,3.10
2018-09-08T06:26:38.962Z,2.87
2018-09-08T06:29:08.434Z,1.87
2018-09-08T06:31:37.917Z,1.60
2018-09-08T06:34:08.313Z,1.60
2018-09-08T06:36:37.907Z,2.13
2018-09-08T06:39:11.612Z,1.43
2018-09-08T06:41:41.578Z,2.40
2018-09-08T06:44:11.087Z,2.17
2018-09-08T06:46:40.797Z,2.00
2018-09-08T06:49:10.276Z,1.80
2018-09-08T06:51:39.756Z,1.43
2018-09-08T06:54:09.282Z,1.57
2018-09-08T06:56:38.813Z,1.70
2018-09-08T06:59:08.427Z,1.43
2018-09-08T07:01:37.852Z,1.90
2018-09-08T07:04:07.481Z,1.67
2018-09-08T07:06:36.956Z,2.07
2018-09-08T07:09:10.122Z,2.10
2018-09-08T07:11:39.666Z,1.90
2018-09-08T07:14:09.087Z,1.93
2018-09-08T07:16:38.504Z,1.40
2018-09-08T07:19:08.105Z,1.00
2018-09-08T07:21:38.397Z,1.73
2018-09-08T07:24:07.890Z,1.67
2018-09-08T07:26:37.423Z,1.27
2018-09-08T07:29:06.998Z,2.13
2018-09-08T07:31:36.537Z,1.83
2018-09-08T07:34:06.284Z,1.80
2018-09-08T07:36:36.461Z,1.80
2018-09-08T07:39:09.206Z,1.93
2018-09-08T07:41:38.725Z,0.90
2018-09-08T07:44:08.375Z,1.50
2018-09-08T07:46:38.478Z,2.03
2018-09-08T07:49:08.061Z,1.33
2018-09-08T07:51:37.569Z,1.47
2018-09-08T07:54:07.866Z,1.60
2018-09-08T07:56:37.303Z,1.63
2018-09-08T07:59:07.473Z,1.90
2018-09-08T08:01:37.031Z,1.77
2018-09-08T08:04:06.479Z,1.73
2018-09-08T08:06:35.915Z,1.27
2018-09-08T08:09:07.465Z,1.30
2018-09-08T08:11:36.935Z,1.40
2018-09-08T08:14:06.758Z,1.30
2018-09-08T08:16:36.343Z,1.80
2018-09-08T08:19:05.928Z,1.50
2018-09-08T08:21:35.446Z,2.13
2018-09-08T08:24:05.051Z,2.00
2018-09-08T08:26:34.512Z,1.43
2018-09-08T08:29:04.023Z,1.60
2018-09-08T08:31:33.485Z,1.83
2018-09-08T08:34:03.528Z,1.63
2018-09-08T08:36:33.119Z,1.30
2018-09-08T08:39:02.610Z,2.00
2018-09-08T08:41:32.303Z,1.40
2018-09-08T08:44:01.817Z,1.30
2018-09-08T08:46:31.211Z,1.60
2018-09-08T08:49:00.669Z,1.60
2018-09-08T08:51:47.197Z,1.47
2018-09-08T08:54:23.342Z,1.90
2018-09-08T08:56:52.965Z,1.60
2018-09-08T08:59:23.044Z,2.30
2018-09-08T09:01:52.505Z,1.77
2018-09-08T09:04:22.026Z,2.03
2018-09-08T09:06:51.501Z,1.70
2018-09-08T09:09:21.142Z,2.37
2018-09-08T09:11:51.472Z,2.37
2018-09-08T09:14:20.548Z,2.03
2018-09-08T09:16:50.134Z,1.50
2018-09-08T09:19:42.232Z,2.20
2018-09-08T09:22:29.267Z,1.77
2018-09-08T09:25:06.951Z,1.80
2018-09-08T09:27:39.138Z,2.07
2018-09-08T09:30:09.965Z,1.27
2018-09-08T09:32:39.450Z,1.50
2018-09-08T09:35:11.423Z,2.00
2018-09-08T09:37:41.010Z,1.60
2018-09-08T09:40:11.255Z,1.90
2018-09-08T09:42:40.746Z,1.87
2018-09-08T09:45:11.080Z,1.40
2018-09-08T09:47:40.544Z,1.43
2018-09-08T09:50:11.689Z,0.93
2018-09-08T09:52:41.499Z,1.63
2018-09-08T09:55:11.143Z,1.20
2018-09-08T09:57:40.659Z,1.70
2018-09-08T10:00:15.268Z,1.20
2018-09-08T10:02:49.697Z,1.47
2018-09-08T10:05:20.437Z,1.57
2018-09-08T10:07:50.674Z,1.67
2018-09-08T10:10:24.637Z,1.20
2018-09-08T10:12:54.210Z,1.10
2018-09-08T10:15:23.879Z,1.23
2018-09-08T10:17:53.425Z,1.20
2018-09-08T10:20:23.929Z,1.30
2018-09-08T10:22:53.445Z,1.20
2018-09-08T10:25:23.440Z,1.37
2018-09-08T10:27:52.965Z,0.97
2018-09-08T10:30:22.648Z,1.20
2018-09-08T10:32:52.168Z,1.00
2018-09-08T10:35:21.849Z,1.27
2018-09-08T10:37:51.286Z,0.67
2018-09-08T10:40:20.848Z,1.70
2018-09-08T10:42:50.336Z,0.97
2018-09-08T10:45:19.761Z,1.10
2018-09-08T10:47:49.422Z,0.70
2018-09-08T10:50:18.918Z,0.60
2018-09-08T10:52:49.816Z,0.40
2018-09-08T10:55:19.540Z,0.60
2018-09-08T10:57:49.189Z,0.83
2018-09-08T11:00:18.798Z,0.50
2018-09-08T11:02:48.486Z,0.80
2018-09-08T11:05:17.774Z,0.50
2018-09-08T11:07:47.281Z,0.50
2018-09-08T11:10:16.833Z,0.60
2018-09-08T11:12:46.429Z,0.57
2018-09-08T11:15:15.956Z,0.90
2018-09-08T11:17:45.550Z,0.60
2018-09-08T11:20:15.061Z,0.73
2018-09-08T11:22:44.572Z,0.60
2018-09-08T11:25:14.032Z,0.50
2018-09-08T11:27:43.543Z,0.70
2018-09-08T11:30:13.033Z,0.67
2018-09-08T11:32:42.604Z,0.83
2018-09-08T11:35:12.095Z,0.60
2018-09-08T11:37:41.604Z,0.60
2018-09-08T11:40:11.132Z,0.73
2018-09-08T11:42:40.616Z,0.80
2018-09-08T11:45:11.087Z,0.70
2018-09-08T11:47:40.747Z,1.17
2018-09-08T11:50:10.191Z,0.70
2018-09-08T11:52:39.781Z,0.57
2018-09-08T11:55:09.306Z,0.50
2018-09-08T11:57:39.300Z,0.70
2018-09-08T12:00:08.918Z,0.70
2018-09-08T12:02:38.491Z,0.80
2018-09-08T12:05:08.248Z,0.80
2018-09-08T12:07:37.708Z,0.50
2018-09-08T12:10:07.442Z,0.53
2018-09-08T12:12:36.940Z,0.80
2018-09-08T12:15:07.661Z,0.60
2018-09-08T12:17:37.195Z,0.67
2018-09-08T12:20:06.922Z,0.80
2018-09-08T12:22:36.461Z,0.80
2018-09-08T12:25:06.006Z,0.63
2018-09-08T12:27:35.532Z,1.13
2018-09-08T12:30:05.233Z,0.93
2018-09-08T12:32:34.869Z,0.70
2018-09-08T12:35:04.355Z,0.60
2018-09-08T12:37:34.368Z,0.77
2018-09-08T12:40:04.028Z,0.80
2018-09-08T12:42:33.685Z,0.90
2018-09-08T12:45:03.503Z,0.77
2018-09-08T12:47:32.972Z,0.83
2018-09-08T12:50:02.556Z,0.80
2018-09-08T12:52:32.107Z,0.60
2018-09-08T12:55:01.633Z,0.80
2018-09-08T12:57:31.385Z,0.63
2018-09-08T13:00:01.079Z,0.97
2018-09-08T13:02:30.776Z,0.90
2018-09-08T13:05:00.232Z,0.80
2018-09-08T13:07:29.919Z,1.07
2018-09-08T13:09:59.510Z,0.60
2018-09-08T13:12:29.020Z,0.93
2018-09-08T13:14:58.494Z,0.60
2018-09-08T13:17:27.932Z,1.20
2018-09-08T13:19:58.174Z,0.80
2018-09-08T13:22:27.828Z,0.70
2018-09-08T13:24:57.729Z,0.80
2018-09-08T13:27:27.261Z,1.00
2018-09-08T13:29:56.952Z,1.00
2018-09-08T13:32:26.488Z,1.50
2018-09-08T13:34:56.635Z,0.60
2018-09-08T13:37:26.381Z,0.90
2018-09-08T13:39:55.963Z,0.60
2018-09-08T13:42:25.519Z,0.70
2018-09-08T13:44:55.191Z,0.77
2018-09-08T13:47:24.934Z,1.00
2018-09-08T13:49:54.419Z,0.80
2018-09-08T13:52:23.860Z,0.80
2018-09-08T13:54:53.374Z,0.60
2018-09-08T13:57:23.020Z,0.93
2018-09-08T13:59:52.565Z,0.77
2018-09-08T14:02:22.184Z,0.63
2018-09-08T14:04:51.689Z,0.87
2018-09-08T14:07:21.188Z,0.50
2018-09-08T14:09:50.716Z,0.97
2018-09-08T14:12:20.310Z,0.67
2018-09-08T14:14:49.834Z,0.90
2018-09-08T14:17:19.333Z,0.50
2018-09-08T14:19:48.976Z,0.57
2018-09-08T14:22:18.653Z,0.80
2018-09-08T14:24:48.157Z,0.70
2018-09-08T14:27:17.678Z,1.10
2018-09-08T14:29:47.275Z,1.03
2018-09-08T14:32:16.855Z,1.33
2018-09-08T14:34:46.290Z,1.27
2018-09-08T14:37:15.890Z,1.20
2018-09-08T14:39:45.579Z,0.70
2018-09-08T14:42:15.108Z,1.00
2018-09-08T14:44:44.750Z,1.37
2018-09-08T14:47:14.211Z,0.80
2018-09-08T14:49:43.713Z,0.70
2018-09-08T14:52:13.318Z,0.80
2018-09-08T14:54:42.816Z,0.93
2018-09-08T14:57:12.420Z,1.70
2018-09-08T14:59:41.987Z,1.10
2018-09-08T15:02:11.472Z,1.03
2018-09-08T15:04:41.297Z,1.00
2018-09-08T15:07:10.822Z,1.13
2018-09-08T15:09:40.281Z,0.70
2018-09-08T15:12:09.813Z,0.90
2018-09-08T15:14:39.268Z,1.20
2018-09-08T15:17:08.789Z,0.90
2018-09-08T15:19:38.402Z,0.80
2018-09-08T15:22:08.153Z,0.80
2018-09-08T15:24:37.701Z,1.13
2018-09-08T15:27:07.217Z,1.03
2018-09-08T15:29:36.773Z,0.73
2018-09-08T15:32:06.363Z,1.13
2018-09-08T15:34:35.930Z,0.80
2018-09-08T15:37:05.400Z,0.80
2018-09-08T15:39:34.936Z,0.87
2018-09-08T15:42:04.650Z,0.73
2018-09-08T15:44:34.116Z,1.27
2018-09-08T15:47:03.573Z,1.27
2018-09-08T15:49:33.078Z,1.00
2018-09-08T15:52:02.617Z,1.03
2018-09-08T15:54:32.208Z,1.00
2018-09-08T15:57:01.882Z,0.90
2018-09-08T15:59:31.484Z,1.37
2018-09-08T16:02:00.929Z,0.60
2018-09-08T16:04:30.510Z,1.30
2018-09-08T16:06:59.966Z,1.53
2018-09-08T16:09:29.418Z,0.67
2018-09-08T16:11:58.885Z,0.80
2018-09-08T16:14:28.540Z,0.80
2018-09-08T16:16:57.982Z,0.50
2018-09-08T16:19:27.533Z,0.63
2018-09-08T16:21:57.114Z,0.77
2018-09-08T16:24:26.607Z,0.60
2018-09-08T16:26:57.274Z,0.80
2018-09-08T16:29:26.744Z,0.80
2018-09-08T16:31:56.221Z,0.87
2018-09-08T16:34:25.726Z,0.97
2018-09-08T16:36:56.120Z,0.60
2018-09-08T16:39:25.701Z,0.97
2018-09-08T16:41:55.373Z,0.67
2018-09-08T16:44:24.910Z,0.70
2018-09-08T16:46:54.347Z,1.30
2018-09-08T16:49:23.870Z,0.60
2018-09-08T16:51:53.378Z,0.93
2018-09-08T16:54:22.873Z,0.80
2018-09-08T16:56:52.474Z,1.10
2018-09-08T16:59:22.045Z,1.20
2018-09-08T17:01:51.603Z,0.90
2018-09-08T17:04:21.027Z,0.80
2018-09-08T17:06:50.710Z,0.50
2018-09-08T17:09:20.364Z,0.90
2018-09-08T17:11:49.991Z,1.90
2018-09-08T17:14:19.449Z,0.97
2018-09-08T17:16:48.986Z,0.70
2018-09-08T17:19:18.649Z,0.97
2018-09-08T17:21:48.114Z,0.70
2018-09-08T17:24:17.684Z,1.10
2018-09-08T17:26:48.133Z,1.13
2018-09-08T17:29:17.698Z,1.03
2018-09-08T17:31:47.314Z,0.90
2018-09-08T17:34:16.904Z,0.60
2018-09-08T17:36:46.423Z,0.73
2018-09-08T17:39:16.321Z,1.40
2018-09-08T17:41:46.629Z,0.60
2018-09-08T17:44:16.474Z,0.60
2018-09-08T17:46:45.962Z,0.80
2018-09-08T17:49:15.533Z,0.73
2018-09-08T17:51:45.988Z,0.90
2018-09-08T17:54:15.629Z,0.97
2018-09-08T17:56:47.221Z,0.90
2018-09-08T17:59:19.147Z,0.93
2018-09-08T18:01:49.946Z,0.93
2018-09-08T18:04:20.189Z,1.10
2018-09-08T18:06:49.876Z,0.80
2018-09-08T18:09:20.400Z,1.00
2018-09-08T18:11:50.035Z,0.80
2018-09-08T18:14:20.127Z,1.57
2018-09-08T18:16:50.549Z,1.93
2018-09-08T18:19:20.419Z,0.93
2018-09-08T18:21:50.183Z,0.97
2018-09-08T18:24:19.670Z,1.20
2018-09-08T18:26:49.196Z,1.30
2018-09-08T18:29:18.791Z,1.17
2018-09-08T18:31:49.091Z,1.00
2018-09-08T18:34:18.579Z,0.97
2018-09-08T18:36:48.069Z,0.70
2018-09-08T18:39:17.542Z,1.20
2018-09-08T18:41:47.114Z,0.63
2018-09-08T18:44:16.535Z,0.87
2018-09-08T18:46:46.660Z,0.97
2018-09-08T18:49:16.202Z,1.17
2018-09-08T18:51:45.782Z,0.80
2018-09-08T18:54:15.338Z,1.13
2018-09-08T18:56:44.802Z,1.07
2018-09-08T18:59:14.318Z,1.60
2018-09-08T19:01:43.822Z,1.00
2018-09-08T19:04:13.372Z,1.00
2018-09-08T19:06:42.871Z,1.43
2018-09-08T19:09:12.449Z,0.70
2018-09-08T19:11:42.137Z,0.90
2018-09-08T19:14:15.738Z,0.70
2018-09-08T19:16:45.252Z,1.00
2018-09-08T19:19:14.778Z,1.00
2018-09-08T19:21:44.348Z,1.23
2018-09-08T19:24:18.970Z,1.20
2018-09-08T19:26:48.724Z,1.00
2018-09-08T19:29:23.424Z,1.10
2018-09-08T19:31:52.985Z,0.60
2018-09-08T19:34:22.407Z,1.10
2018-09-08T19:36:51.856Z,1.37
2018-09-08T19:39:21.325Z,1.20
2018-09-08T19:41:51.182Z,1.10
2018-09-08T19:44:20.685Z,1.10
2018-09-08T19:46:55.314Z,1.17
2018-09-08T19:49:24.847Z,0.90
2018-09-08T19:51:54.301Z,1.00
2018-09-08T19:54:23.790Z,1.10
2018-09-08T19:56:58.418Z,1.43
2018-09-08T19:59:27.901Z,1.23
2018-09-08T20:01:57.449Z,1.27
2018-09-08T20:04:26.900Z,1.20
2018-09-08T20:06:56.423Z,0.90
2018-09-08T20:09:25.941Z,1.20
2018-09-08T20:11:55.382Z,1.50
2018-09-08T20:14:24.894Z,1.83
2018-09-08T20:16:54.360Z,2.10
2018-09-08T20:19:23.924Z,1.40
2018-09-08T20:21:53.333Z,2.10
2018-09-08T20:24:22.809Z,2.23
2018-09-08T20:26:52.443Z,2.00
2018-09-08T20:29:21.785Z,2.13
2018-09-08T20:31:51.294Z,2.30
2018-09-08T20:34:20.909Z,2.30
2018-09-08T20:36:50.383Z,1.80
2018-09-08T20:39:19.893Z,1.80
2018-09-08T20:41:49.337Z,1.90
2018-09-08T20:44:18.877Z,1.77
2018-09-08T20:46:48.382Z,1.80
2018-09-08T20:49:17.790Z,2.27
2018-09-08T20:51:47.369Z,1.30
2018-09-08T20:54:17.048Z,1.50
2018-09-08T20:56:46.519Z,1.33
2018-09-08T20:59:16.047Z,1.80
2018-09-08T21:01:45.589Z,1.10
2018-09-08T21:04:15.294Z,1.30
2018-09-08T21:06:44.766Z,1.90
2018-09-08T21:09:14.221Z,1.70
2018-09-08T21:11:43.710Z,1.93
2018-09-08T21:14:13.126Z,1.40
2018-09-08T21:16:42.636Z,1.50
2018-09-08T21:19:12.136Z,1.10
2018-09-08T21:21:41.597Z,1.30
2018-09-08T21:24:11.093Z,1.20
2018-09-08T21:26:40.542Z,0.93
2018-09-08T21:29:10.051Z,1.60
2018-09-08T21:31:39.531Z,1.50
2018-09-08T21:34:09.829Z,1.40
2018-09-08T21:36:39.310Z,1.27
2018-09-08T21:39:10.363Z,1.07
2018-09-08T21:41:39.877Z,1.30
2018-09-08T21:44:09.341Z,1.37
2018-09-08T21:46:38.900Z,0.90
2018-09-08T21:49:08.348Z,1.17
2018-09-08T21:51:37.800Z,1.73
2018-09-08T21:54:07.327Z,1.53
2018-09-08T21:56:36.800Z,1.20
2018-09-08T21:59:06.502Z,2.17
2018-09-08T22:01:35.960Z,1.40
2018-09-08T22:05:34.501Z,0.90
2018-09-08T22:08:03.979Z,1.00
2018-09-08T22:10:33.438Z,0.77
2018-09-08T22:13:02.959Z,1.10
2018-09-08T22:15:32.435Z,1.27
2018-09-08T22:18:01.978Z,1.10
2018-09-08T22:20:31.550Z,1.03
2018-09-08T22:23:01.098Z,1.00
2018-09-08T22:25:30.543Z,1.17
2018-09-08T22:27:59.998Z,1.20
2018-09-08T22:30:29.471Z,1.50
2018-09-08T22:32:58.990Z,1.50
2018-09-08T22:35:28.384Z,1.20
2018-09-08T22:37:57.909Z,1.17
2018-09-08T22:40:27.437Z,1.27
2018-09-08T22:42:56.882Z,1.33
2018-09-08T22:45:26.373Z,0.87
2018-09-08T22:47:55.781Z,1.37
2018-09-08T22:50:25.248Z,1.23
2018-09-08T22:52:54.730Z,1.47
2018-09-08T22:55:24.192Z,1.30
2018-09-08T22:57:53.732Z,1.33
2018-09-08T23:00:23.208Z,1.77
2018-09-08T23:02:52.635Z,1.20
2018-09-08T23:05:22.094Z,1.27
2018-09-08T23:07:51.558Z,1.40
2018-09-08T23:10:21.012Z,1.20
2018-09-08T23:12:50.501Z,1.87
2018-09-08T23:15:20.014Z,1.03
2018-09-08T23:17:49.496Z,1.20
2018-09-08T23:20:18.970Z,1.00
2018-09-08T23:22:48.407Z,1.00
2018-09-08T23:25:17.936Z,0.93
2018-09-08T23:27:47.782Z,1.33
2018-09-08T23:31:46.729Z,1.20
2018-09-08T23:34:16.384Z,1.57
2018-09-08T23:36:45.862Z,1.33
2018-09-08T23:39:15.288Z,1.63
2018-09-08T23:41:44.777Z,1.77
2018-09-08T23:44:14.266Z,1.20
2018-09-08T23:46:43.778Z,1.03
2018-09-08T23:49:13.245Z,1.40
2018-09-08T23:51:42.765Z,1.50
2018-09-08T23:54:12.286Z,1.30
2018-09-08T23:56:41.757Z,1.43
2018-09-08T23:59:11.250Z,1.97
